createdAt,value
2022-10-14T00:00:56.280Z,14.11
2022-10-14T00:03:40.255Z,13.98
2022-10-14T00:06:20.239Z,14.15
2022-10-14T00:08:56.786Z,14.15
2022-10-14T00:14:55.401Z,13.89
2022-10-14T00:17:49.917Z,14.03
2022-10-14T00:20:33.813Z,13.98
2022-10-14T00:23:32.962Z,14.03
2022-10-14T00:26:08.291Z,13.93
2022-10-14T00:28:47.594Z,14.35
2022-10-14T00:31:26.685Z,14.48
2022-10-14T00:34:04.814Z,14.41
2022-10-14T00:36:58.451Z,14.31
2022-10-14T00:39:56.918Z,14.15
2022-10-14T00:45:42.618Z,14.24
2022-10-14T00:48:28.117Z,14.44
2022-10-14T00:51:15.378Z,14.54
2022-10-14T00:54:01.561Z,14.49
2022-10-14T00:57:01.220Z,14.31
2022-10-14T00:59:51.266Z,15.05
2022-10-14T01:02:36.950Z,15.26
2022-10-14T01:05:32.406Z,15.30
2022-10-14T01:08:21.956Z,15.30
2022-10-14T01:11:07.508Z,15.26
2022-10-14T01:13:59.904Z,14.98
2022-10-14T01:16:46.970Z,15.46
2022-10-14T01:20:06.798Z,15.68
2022-10-14T01:26:11.609Z,15.87
2022-10-14T01:29:05.421Z,15.93
2022-10-14T01:32:13.852Z,15.91
2022-10-14T01:35:21.768Z,16.13
2022-10-14T01:38:24.801Z,16.26
2022-10-14T01:41:18.976Z,16.20
2022-10-14T01:44:12.310Z,16.08
2022-10-14T01:47:09.037Z,16.14
2022-10-14T01:49:49.436Z,16.10
2022-10-14T01:55:28.730Z,16.04
2022-10-14T01:58:12.631Z,16.17
2022-10-14T02:00:55.388Z,16.18
2022-10-14T02:03:44.324Z,16.30
2022-10-14T02:06:27.827Z,16.55
2022-10-14T02:09:29.037Z,16.68
2022-10-14T02:12:33.344Z,16.63
2022-10-14T02:15:33.593Z,16.79
2022-10-14T02:18:36.275Z,16.88
2022-10-14T02:21:39.780Z,16.95
2022-10-14T02:24:26.811Z,16.99
2022-10-14T02:27:12.202Z,17.13
2022-10-14T02:30:08.036Z,17.22
2022-10-14T02:32:57.212Z,17.20
2022-10-14T02:35:32.220Z,17.01
2022-10-14T02:38:12.063Z,16.89
2022-10-14T02:41:07.305Z,16.85
2022-10-14T02:43:51.894Z,16.95
2022-10-14T02:46:29.980Z,17.17
2022-10-14T02:49:20.127Z,17.42
2022-10-14T02:52:02.588Z,17.53
2022-10-14T02:54:43.211Z,17.57
2022-10-14T02:57:30.133Z,17.50
2022-10-14T03:00:22.000Z,17.54
2022-10-14T03:02:56.747Z,17.57
2022-10-14T03:05:47.214Z,17.68
2022-10-14T03:08:25.594Z,17.80
2022-10-14T03:11:37.715Z,17.87
2022-10-14T03:14:29.922Z,17.85
2022-10-14T03:17:14.488Z,17.84
2022-10-14T03:20:02.957Z,17.85
2022-10-14T03:22:58.209Z,17.78
2022-10-14T03:25:38.621Z,17.79
2022-10-14T03:28:24.044Z,17.84
2022-10-14T03:31:00.197Z,17.79
2022-10-14T03:33:36.784Z,17.83
2022-10-14T03:36:45.044Z,17.85
2022-10-14T03:39:26.854Z,17.95
2022-10-14T03:42:05.657Z,17.96
2022-10-14T03:44:48.578Z,18.02
2022-10-14T03:47:42.041Z,18.13
2022-10-14T03:53:12.734Z,18.06
2022-10-14T03:55:58.373Z,18.04
2022-10-14T03:58:52.125Z,18.06
2022-10-14T04:01:55.164Z,17.88
2022-10-14T04:04:34.419Z,17.93
2022-10-14T04:07:22.722Z,17.98
2022-10-14T04:10:12.010Z,17.92
2022-10-14T04:12:44.780Z,17.90
2022-10-14T04:18:35.045Z,17.59
2022-10-14T04:21:20.366Z,17.63
2022-10-14T04:24:34.878Z,17.75
2022-10-14T04:27:10.361Z,17.66
2022-10-14T04:29:47.928Z,17.89
2022-10-14T04:32:27.108Z,17.82
2022-10-14T04:35:20.243Z,17.83
2022-10-14T04:37:58.882Z,17.88
2022-10-14T04:40:48.378Z,17.84
2022-10-14T04:46:19.840Z,18.01
2022-10-14T04:48:56.654Z,17.92
2022-10-14T04:51:57.404Z,17.80
2022-10-14T04:54:42.417Z,17.72
2022-10-14T04:57:38.602Z,17.72
2022-10-14T05:00:26.399Z,17.70
2022-10-14T05:03:14.150Z,17.74
2022-10-14T05:06:03.351Z,17.78
2022-10-14T05:09:02.518Z,17.82
2022-10-14T05:12:00.056Z,17.78
2022-10-14T05:14:52.524Z,17.67
2022-10-14T05:17:47.248Z,17.51
2022-10-14T05:20:26.586Z,17.48
2022-10-14T05:23:43.541Z,17.53
2022-10-14T05:26:47.114Z,17.56
2022-10-14T05:29:29.263Z,17.54
2022-10-14T05:32:23.706Z,17.54
2022-10-14T05:34:59.417Z,17.50
2022-10-14T05:37:40.966Z,17.41
2022-10-14T05:40:26.188Z,17.21
2022-10-14T05:46:05.037Z,17.30
2022-10-14T05:48:54.289Z,17.21
2022-10-14T05:51:49.248Z,17.19
2022-10-14T05:54:39.626Z,17.21
2022-10-14T05:57:16.906Z,17.18
2022-10-14T06:03:02.685Z,17.13
2022-10-14T06:05:47.286Z,17.06
2022-10-14T06:08:23.593Z,16.99
2022-10-14T06:11:16.757Z,16.44
2022-10-14T06:14:14.735Z,16.79
2022-10-14T06:17:32.467Z,16.71
2022-10-14T06:20:34.344Z,16.39
2022-10-14T06:23:12.648Z,16.60
2022-10-14T06:26:15.505Z,16.51
2022-10-14T06:28:56.756Z,16.37
2022-10-14T06:31:37.688Z,16.35
2022-10-14T06:34:29.575Z,16.27
2022-10-14T06:37:09.932Z,16.20
2022-10-14T06:40:08.846Z,16.15
2022-10-14T06:42:49.841Z,16.07
2022-10-14T06:45:38.248Z,15.74
2022-10-14T06:48:57.141Z,15.94
2022-10-14T06:51:46.804Z,15.82
2022-10-14T06:54:25.303Z,15.72
2022-10-14T07:00:23.564Z,15.50
2022-10-14T07:06:11.253Z,15.14
2022-10-14T07:08:51.648Z,15.16
2022-10-14T07:11:37.579Z,14.95
2022-10-14T07:14:14.562Z,14.94
2022-10-14T07:17:02.038Z,14.81
2022-10-14T07:19:40.632Z,14.75
2022-10-14T07:22:26.203Z,14.64
2022-10-14T07:25:18.378Z,14.58
2022-10-14T07:28:00.544Z,14.53
2022-10-14T07:30:38.103Z,14.39
2022-10-14T07:33:27.664Z,14.34
2022-10-14T07:36:21.596Z,14.25
2022-10-14T07:39:04.419Z,14.14
2022-10-14T07:41:53.867Z,13.99
2022-10-14T07:44:29.179Z,13.91
2022-10-14T07:47:15.773Z,13.81
2022-10-14T07:49:59.205Z,13.70
2022-10-14T07:52:41.607Z,13.55
2022-10-14T07:55:27.213Z,13.52
2022-10-14T07:58:09.924Z,13.43
2022-10-14T08:00:52.694Z,13.32
2022-10-14T08:03:46.925Z,13.18
2022-10-14T08:06:36.010Z,13.05
2022-10-14T08:09:17.385Z,12.97
2022-10-14T08:11:57.604Z,12.85
2022-10-14T08:15:00.843Z,12.68
2022-10-14T08:17:46.788Z,12.50
2022-10-14T08:20:36.011Z,12.42
2022-10-14T08:23:10.727Z,12.34
2022-10-14T08:25:49.291Z,12.27
2022-10-14T08:28:28.173Z,12.16
2022-10-14T08:31:29.911Z,12.08
2022-10-14T08:34:10.360Z,11.95
2022-10-14T08:36:44.966Z,11.83
2022-10-14T08:39:40.466Z,11.70
2022-10-14T08:42:44.326Z,11.60
2022-10-14T08:45:37.668Z,11.43
2022-10-14T08:48:23.293Z,11.32
2022-10-14T08:51:02.353Z,11.16
2022-10-14T08:53:59.781Z,10.90
2022-10-14T08:56:44.151Z,10.66
2022-10-14T08:59:29.073Z,10.43
2022-10-14T09:02:19.432Z,10.32
2022-10-14T09:05:15.339Z,10.21
2022-10-14T09:08:04.871Z,10.05
2022-10-14T09:10:47.049Z,9.93
2022-10-14T09:13:42.678Z,9.91
2022-10-14T09:16:25.585Z,9.88
2022-10-14T09:19:03.205Z,9.86
2022-10-14T09:21:58.810Z,9.78
2022-10-14T09:24:56.977Z,9.71
2022-10-14T09:27:33.505Z,9.63
2022-10-14T09:30:33.972Z,9.33
2022-10-14T09:33:21.722Z,9.37
2022-10-14T09:36:07.072Z,9.25
2022-10-14T09:38:47.754Z,9.19
2022-10-14T09:41:28.124Z,9.13
2022-10-14T09:44:28.112Z,8.93
2022-10-14T09:47:12.989Z,8.94
2022-10-14T09:50:03.482Z,8.89
2022-10-14T09:55:49.761Z,8.87
2022-10-14T09:58:52.099Z,8.58
2022-10-14T10:01:36.528Z,8.87
2022-10-14T10:04:41.055Z,8.33
2022-10-14T10:07:34.199Z,8.81
2022-10-14T10:10:30.956Z,8.77
2022-10-14T10:13:41.482Z,8.62
2022-10-14T10:16:36.052Z,8.62
2022-10-14T10:19:48.438Z,8.55
2022-10-14T10:22:42.824Z,8.45
2022-10-14T10:25:28.788Z,8.10
2022-10-14T10:28:48.678Z,8.10
2022-10-14T10:31:50.959Z,8.33
2022-10-14T10:35:05.721Z,8.25
2022-10-14T10:38:21.122Z,8.13
2022-10-14T10:41:13.541Z,8.09
2022-10-14T10:44:28.657Z,7.98
2022-10-14T10:47:29.551Z,7.95
2022-10-14T10:50:37.515Z,7.91
2022-10-14T10:53:45.097Z,7.88
2022-10-14T10:56:33.231Z,7.78
2022-10-14T10:59:36.264Z,7.72
2022-10-14T11:02:53.081Z,7.45
2022-10-14T11:05:49.890Z,7.27
2022-10-14T11:09:16.839Z,7.17
2022-10-14T11:12:25.728Z,7.16
2022-10-14T11:18:12.706Z,7.15
2022-10-14T11:21:13.801Z,7.25
2022-10-14T11:27:34.295Z,6.84
2022-10-14T11:30:23.957Z,6.74
2022-10-14T11:33:33.884Z,6.76
2022-10-14T11:36:32.506Z,6.66
2022-10-14T11:39:34.769Z,6.85
2022-10-14T11:42:59.761Z,6.83
2022-10-14T11:46:04.061Z,6.83
2022-10-14T11:48:47.787Z,6.79
2022-10-14T11:51:33.286Z,6.70
2022-10-14T11:54:29.629Z,6.71
2022-10-14T11:57:18.171Z,6.56
2022-10-14T12:00:12.229Z,6.29
2022-10-14T12:03:06.240Z,6.66
2022-10-14T12:05:52.219Z,6.59
2022-10-14T12:08:35.550Z,6.58
2022-10-14T12:11:18.506Z,6.59
2022-10-14T12:14:05.169Z,6.44
2022-10-14T12:16:41.214Z,6.58
2022-10-14T12:19:28.147Z,6.14
2022-10-14T12:22:23.532Z,6.33
2022-10-14T12:25:11.041Z,6.14
2022-10-14T12:28:02.872Z,6.07
2022-10-14T12:31:00.016Z,6.01
2022-10-14T12:34:31.343Z,5.94
2022-10-14T12:37:28.764Z,5.76
2022-10-14T12:40:32.806Z,5.73
2022-10-14T12:43:28.001Z,5.63
2022-10-14T12:46:34.896Z,5.63
2022-10-14T12:49:25.854Z,5.65
2022-10-14T12:52:14.573Z,5.62
2022-10-14T12:55:00.416Z,5.63
2022-10-14T13:00:51.163Z,5.48
2022-10-14T13:03:35.725Z,5.76
2022-10-14T13:06:47.362Z,5.80
2022-10-14T13:09:44.668Z,5.61
2022-10-14T13:12:54.763Z,5.65
2022-10-14T13:19:26.531Z,5.73
2022-10-14T13:22:08.447Z,5.65
2022-10-14T13:25:02.865Z,5.73
2022-10-14T13:27:49.313Z,5.63
2022-10-14T13:30:44.652Z,5.55
2022-10-14T13:33:46.472Z,5.46
2022-10-14T13:36:40.606Z,5.08
2022-10-14T13:39:38.208Z,5.31
2022-10-14T13:42:22.609Z,5.27
2022-10-14T13:45:02.904Z,5.24
2022-10-14T13:47:55.667Z,5.18
2022-10-14T13:50:49.206Z,5.07
2022-10-14T13:53:45.020Z,4.86
2022-10-14T13:56:37.690Z,5.07
2022-10-14T13:59:43.945Z,5.19
2022-10-14T14:02:29.486Z,5.14
2022-10-14T14:05:33.020Z,5.04
2022-10-14T14:08:43.804Z,5.11
2022-10-14T14:11:35.430Z,4.98
2022-10-14T14:14:22.325Z,4.78
2022-10-14T14:19:50.472Z,5.04
2022-10-14T14:23:09.576Z,4.49
2022-10-14T14:26:14.335Z,5.07
2022-10-14T14:28:45.418Z,5.06
2022-10-14T14:31:33.644Z,5.05
2022-10-14T14:34:28.514Z,4.74
2022-10-14T14:37:56.430Z,4.94
2022-10-14T14:40:30.912Z,4.89
2022-10-14T14:43:14.900Z,4.92
2022-10-14T14:49:13.869Z,4.93
2022-10-14T14:51:54.552Z,4.95
2022-10-14T14:54:32.315Z,4.91
2022-10-14T14:57:19.165Z,4.95
2022-10-14T15:00:16.536Z,4.89
2022-10-14T15:03:27.953Z,4.86
2022-10-14T15:09:20.783Z,4.85
2022-10-14T15:12:10.236Z,4.75
2022-10-14T15:15:08.499Z,4.63
2022-10-14T15:17:48.486Z,4.54
2022-10-14T15:20:44.273Z,4.44
2022-10-14T15:24:11.225Z,4.58
2022-10-14T15:26:48.367Z,4.49
2022-10-14T15:29:34.953Z,4.51
2022-10-14T15:32:25.325Z,4.59
2022-10-14T15:35:11.965Z,4.60
2022-10-14T15:37:53.959Z,4.67
2022-10-14T15:40:48.696Z,4.67
2022-10-14T15:43:32.246Z,4.29
2022-10-14T15:46:31.843Z,4.45
2022-10-14T15:52:17.814Z,4.33
2022-10-14T15:55:14.382Z,4.71
2022-10-14T15:58:01.637Z,4.75
2022-10-14T16:00:38.871Z,4.75
2022-10-14T16:03:35.998Z,4.82
2022-10-14T16:06:45.273Z,4.85
2022-10-14T16:12:26.870Z,4.85
2022-10-14T16:15:02.853Z,4.89
2022-10-14T16:17:52.841Z,4.80
2022-10-14T16:20:43.214Z,4.67
2022-10-14T16:23:33.403Z,4.62
2022-10-14T16:26:09.219Z,4.59
2022-10-14T16:28:54.997Z,4.57
2022-10-14T16:31:42.348Z,4.49
2022-10-14T16:34:29.305Z,4.30
2022-10-14T16:37:15.021Z,4.35
2022-10-14T16:39:55.010Z,4.28
2022-10-14T16:42:52.337Z,4.37
2022-10-14T16:45:41.853Z,4.47
2022-10-14T16:48:23.090Z,4.50
2022-10-14T16:51:16.080Z,4.44
2022-10-14T16:54:01.606Z,4.42
2022-10-14T16:57:02.620Z,4.43
2022-10-14T16:59:47.443Z,4.46
2022-10-14T17:02:45.336Z,4.47
2022-10-14T17:05:50.347Z,4.49
2022-10-14T17:08:36.056Z,4.42
2022-10-14T17:11:24.803Z,4.39
2022-10-14T17:14:13.625Z,3.98
2022-10-14T17:17:11.151Z,4.60
2022-10-14T17:20:07.082Z,4.60
2022-10-14T17:22:50.808Z,4.54
2022-10-14T17:25:31.107Z,4.51
2022-10-14T17:28:09.169Z,4.46
2022-10-14T17:30:56.075Z,4.45
2022-10-14T17:33:40.819Z,4.45
2022-10-14T17:36:20.592Z,4.46
2022-10-14T17:42:24.916Z,4.35
2022-10-14T17:45:03.343Z,4.35
2022-10-14T17:50:51.823Z,4.35
2022-10-14T17:53:34.314Z,4.41
2022-10-14T17:56:13.201Z,3.80
2022-10-14T17:59:11.823Z,4.40
2022-10-14T18:02:02.787Z,4.37
2022-10-14T18:04:53.244Z,4.27
2022-10-14T18:07:41.684Z,4.31
2022-10-14T18:10:33.077Z,4.24
2022-10-14T18:13:19.486Z,4.26
2022-10-14T18:16:16.714Z,4.21
2022-10-14T18:18:58.336Z,4.19
2022-10-14T18:21:48.542Z,4.16
2022-10-14T18:24:34.904Z,4.31
2022-10-14T18:27:13.514Z,4.37
2022-10-14T18:30:06.453Z,4.45
2022-10-14T18:33:03.460Z,4.50
2022-10-14T18:35:44.054Z,4.46
2022-10-14T18:38:26.942Z,4.59
2022-10-14T18:41:17.477Z,4.54
2022-10-14T18:44:08.566Z,4.56
2022-10-14T18:46:47.130Z,4.67
2022-10-14T18:49:32.396Z,4.64
2022-10-14T18:52:10.830Z,4.67
2022-10-14T18:54:55.727Z,4.68
2022-10-14T18:57:34.902Z,4.72
2022-10-14T19:00:14.328Z,4.76
2022-10-14T19:03:07.095Z,4.82
2022-10-14T19:05:55.107Z,4.83
2022-10-14T19:08:38.084Z,4.81
2022-10-14T19:11:26.461Z,4.82
2022-10-14T19:14:09.876Z,4.72
2022-10-14T19:17:26.393Z,4.94
2022-10-14T19:20:23.117Z,4.92
2022-10-14T19:23:48.936Z,4.87
2022-10-14T19:26:34.492Z,4.75
2022-10-14T19:29:16.756Z,4.85
2022-10-14T19:31:58.521Z,4.62
2022-10-14T19:34:49.852Z,4.98
2022-10-14T19:37:31.222Z,5.10
2022-10-14T19:40:10.207Z,5.11
2022-10-14T19:42:48.211Z,5.13
2022-10-14T19:45:50.270Z,5.16
2022-10-14T19:48:36.481Z,5.09
2022-10-14T19:51:48.776Z,5.06
2022-10-14T19:54:27.873Z,5.15
2022-10-14T19:57:07.766Z,5.13
2022-10-14T20:00:15.529Z,5.07
2022-10-14T20:02:56.120Z,4.98
2022-10-14T20:05:55.945Z,4.80
2022-10-14T20:08:33.172Z,5.04
2022-10-14T20:11:45.844Z,5.05
2022-10-14T20:14:36.345Z,5.10
2022-10-14T20:20:05.537Z,5.09
2022-10-14T20:22:43.151Z,5.09
2022-10-14T20:25:37.013Z,5.07
2022-10-14T20:28:16.153Z,5.15
2022-10-14T20:31:03.469Z,5.06
2022-10-14T20:33:49.754Z,5.09
2022-10-14T20:36:35.769Z,5.08
2022-10-14T20:39:14.740Z,5.06
2022-10-14T20:41:50.509Z,5.08
2022-10-14T20:47:40.714Z,5.03
2022-10-14T20:50:26.129Z,4.95
2022-10-14T20:53:15.314Z,4.96
2022-10-14T20:55:53.395Z,5.02
2022-10-14T20:58:38.567Z,5.02
2022-10-14T21:01:33.230Z,5.07
2022-10-14T21:04:27.687Z,4.36
2022-10-14T21:07:10.196Z,4.91
2022-10-14T21:09:54.009Z,4.70
2022-10-14T21:12:31.069Z,4.56
2022-10-14T21:15:16.159Z,4.63
2022-10-14T21:18:03.858Z,4.62
2022-10-14T21:20:48.405Z,4.74
2022-10-14T21:26:25.652Z,4.71
2022-10-14T21:29:11.010Z,5.03
2022-10-14T21:32:01.620Z,5.02
2022-10-14T21:34:43.814Z,5.11
2022-10-14T21:37:36.992Z,5.18
2022-10-14T21:40:24.183Z,5.17
2022-10-14T21:43:09.280Z,5.36
2022-10-14T21:45:59.362Z,5.35
2022-10-14T21:48:40.795Z,5.28
2022-10-14T21:51:57.909Z,5.36
2022-10-14T21:57:34.591Z,5.24
2022-10-14T22:00:20.321Z,5.27
2022-10-14T22:03:00.363Z,5.33
2022-10-14T22:05:54.421Z,5.39
2022-10-14T22:08:40.215Z,5.49
2022-10-14T22:11:33.094Z,5.61
2022-10-14T22:14:21.055Z,5.56
2022-10-14T22:17:15.264Z,5.91
2022-10-14T22:20:05.128Z,6.02
2022-10-14T22:22:48.614Z,6.11
2022-10-14T22:25:28.772Z,6.21
2022-10-14T22:28:35.757Z,6.29
2022-10-14T22:31:25.241Z,6.35
2022-10-14T22:34:12.683Z,6.50
2022-10-14T22:37:10.668Z,6.63
2022-10-14T22:39:50.416Z,6.80
2022-10-14T22:42:40.515Z,6.84
2022-10-14T22:45:17.982Z,6.99
2022-10-14T22:53:34.691Z,7.18
2022-10-14T22:56:10.058Z,7.33
2022-10-14T22:58:53.119Z,7.47
2022-10-14T23:04:41.574Z,7.57
2022-10-14T23:10:51.829Z,7.88
2022-10-14T23:13:51.144Z,7.97
2022-10-14T23:16:37.085Z,8.05
2022-10-14T23:19:18.772Z,8.08
2022-10-14T23:22:10.342Z,8.05
2022-10-14T23:25:05.323Z,8.03
2022-10-14T23:28:16.552Z,8.03
2022-10-14T23:31:01.437Z,8.02
2022-10-14T23:33:49.261Z,8.02
2022-10-14T23:36:27.358Z,8.37
2022-10-14T23:39:08.568Z,8.43
2022-10-14T23:41:52.877Z,8.61
2022-10-14T23:44:32.195Z,8.68
2022-10-14T23:50:10.499Z,8.79
2022-10-14T23:52:50.355Z,8.88
2022-10-14T23:55:34.918Z,8.99
2022-10-14T23:58:29.715Z,9.10
